Flight Track Log - Related Links

Times and Time Zones

All times are in EDT time to prevent confusion due to time zone crossing. See the CMP278 flight status page for this flight to view local times or setup timezone preferences in your user account.

Time Position Orientation Groundspeed Altitude Reporting Facility
EDT Latitude Longitude Course Direction KTS MPH feet Rate Location/Type
Tue 10:54:35 AM -34.8290 -58.5000 108° East 192 221 1,000  Level FlightAware ADS-B
Tue 10:54:45 AM -34.8330 -58.4910 118° Southeast 197 227 1,300 1,400 Climbing FlightAware ADS-B
Tue 10:55:05 AM -34.8460 -58.4790 143° Southeast 212 244 1,700 1,200 Climbing FlightAware ADS-B
Tue 10:55:15 AM -34.8600 -58.4770 173° South 228 262 1,900 2,250 Climbing FlightAware ADS-B
Tue 10:55:45 AM -34.8930 -58.4820 187° South 252 290 3,200 3,055 Climbing FlightAware ADS-B
Tue 10:56:10 AM -34.9220 -58.4880 190° South 252 290 4,700 3,382 Climbing FlightAware ADS-B
Tue 10:56:40 AM -34.9540 -58.4970 193° South 254 292 6,300 3,200 Climbing FlightAware ADS-B
Tue 10:56:55 AM -34.9730 -58.5040 197° South 257 296 7,100 3,360 Climbing FlightAware ADS-B
Tue 10:57:05 AM -34.9830 -58.5140 219° Southwest 254 292 7,700 3,200 Climbing FlightAware ADS-B
Tue 10:57:25 AM -34.9910 -58.5370 247° West 252 290 8,700 3,191 Climbing FlightAware ADS-B
Tue 10:57:52 AM -34.9820 -58.5770 285° West 262 302 10,200 2,780 Climbing FlightAware ADS-B
Tue 10:58:06 AM -34.9690 -58.5900 321° Northwest 281 323 10,600 1,615 Climbing FlightAware ADS-B
Tue 10:58:18 AM -34.9530 -58.5970 340° North 306 352 10,900 1,929 Climbing FlightAware ADS-B
Tue 10:59:02 AM -34.8880 -58.6200 344° North 335 386 12,400 2,372 Climbing FlightAware ADS-B
Tue 10:59:44 AM -34.8240 -58.6430 344° North 350 403 14,300 2,500 Climbing FlightAware ADS-B
Tue 11:00:26 AM -34.7580 -58.6670 343° North 365 420 15,900 2,341 Climbing FlightAware ADS-B
Tue 11:01:06 AM -34.6910 -58.6910 344° North 376 433 17,500 2,268 Climbing FlightAware ADS-B
Tue 11:01:48 AM -34.6190 -58.7160 344° North 387 445 19,000 2,114 Climbing FlightAware ADS-B
Tue 11:02:34 AM -34.5380 -58.7450 344° North 398 458 20,600 2,049 Climbing FlightAware ADS-B
Tue 11:03:10 AM -34.4750 -58.7680 343° North 406 467 21,800 1,800 Climbing FlightAware ADS-B
Tue 11:03:54 AM -34.3940 -58.7960 344° North 418 481 23,000 1,733 Climbing FlightAware ADS-B
Tue 11:04:40 AM -34.3070 -58.8270 344° North 427 491 24,400 1,694 Climbing FlightAware ADS-B
Tue 11:05:19 AM -34.2330 -58.8540 343° North 435 501 25,400 1,463 Climbing FlightAware ADS-B
Tue 11:06:02 AM -34.1480 -58.8870 342° North 439 505 26,400 1,443 Climbing FlightAware ADS-B
Tue 11:06:38 AM -34.0850 -58.9310 330° Northwest 440 506 27,300 1,342 Climbing FlightAware ADS-B
Tue 11:07:18 AM -34.0150 -58.9820 329° Northwest 446 513 28,100 1,239 Climbing FlightAware ADS-B
Tue 11:08:10 AM -33.9220 -59.0500 329° Northwest 454 522 29,200 1,304 Climbing FlightAware ADS-B
Tue 11:08:50 AM -33.8520 -59.1010 329° Northwest 453 521 30,100 1,500 Climbing FlightAware ADS-B
Tue 11:09:14 AM -33.8070 -59.1330 329° Northwest 452 520 30,800 1,500 Climbing FlightAware ADS-B
Tue 11:09:58 AM -33.7290 -59.1890 329° Northwest 449 517 31,800 1,395 Climbing FlightAware ADS-B
Tue 11:10:40 AM -33.6540 -59.2430 329° Northwest 445 512 32,800 1,500 Climbing FlightAware ADS-B
Tue 11:11:22 AM -33.5810 -59.2960 329° Northwest 438 504 33,900 1,395 Climbing FlightAware ADS-B
Tue 11:12:06 AM -33.5050 -59.3510 329° Northwest 433 498 34,800 1,071 Climbing FlightAware ADS-B
Tue 11:12:46 AM -33.4370 -59.3990 329° Northwest 435 501 35,400 857 Climbing FlightAware ADS-B
Tue 11:13:30 AM -33.3590 -59.4540 330° Northwest 433 498 36,000 429 Climbing FlightAware ADS-B
Tue 11:14:10 AM -33.2920 -59.5030 329° Northwest 434 499 36,000  Level FlightAware ADS-B
Tue 11:14:52 AM -33.2320 -59.5480 328° Northwest 433 498 36,000  Level FlightAware ADS-B
Tue 11:15:29 AM -33.1790 -59.5880 328° Northwest 433 498 36,000  Level FlightAware ADS-B
Tue 11:16:17 AM -33.1100 -59.6390 328° Northwest 433 498 36,000  Level FlightAware ADS-B
Tue 11:17:03 AM -33.0430 -59.6890 328° Northwest 433 498 36,000  Level FlightAware ADS-B
Tue 11:17:40 AM -32.9900 -59.7290 328° Northwest 433 498 36,000  Level FlightAware ADS-B
Tue 11:18:17 AM -32.9360 -59.7690 328° Northwest 433 498 36,000  Level FlightAware ADS-B
Tue 11:19:05 AM -32.8670 -59.8200 328° Northwest 433 498 36,000  Level FlightAware ADS-B
Tue 11:19:41 AM -32.8150 -59.8590 328° Northwest 433 498 36,000  Level FlightAware ADS-B
Tue 11:20:29 AM -32.7460 -59.9100 328° Northwest 433 498 36,000  Level FlightAware ADS-B
Tue 11:21:17 AM -32.6770 -59.9620 328° Northwest 433 498 36,000  Level FlightAware ADS-B
Tue 11:22:30 AM -32.5710 -60.0400 328° Northwest 433 498 36,000  Level FlightAware ADS-B
Tue 11:23:18 AM -32.5020 -60.0910 328° Northwest 433 498 36,000  Level FlightAware ADS-B
Tue 11:23:54 AM -32.4500 -60.1300 328° Northwest 433 498 36,000  Level FlightAware ADS-B
Tue 11:26:00 AM -32.2452 -60.2545 333° Northwest  Level Estimated
Tue 11:27:00 AM -32.1476 -60.3136 333° Northwest  Level Estimated
Tue 11:28:00 AM -32.0500 -60.3725 333° Northwest  Level Estimated
Tue 11:29:00 AM -31.9524 -60.4313 333° Northwest  Level Estimated
Tue 11:30:00 AM -31.8547 -60.4900 333° Northwest  Level Estimated
Tue 11:31:00 AM -31.7571 -60.5486 333° Northwest  Level Estimated
Tue 11:32:00 AM -31.6593 -60.6071 333° Northwest  Level Estimated
Tue 11:33:00 AM -31.5616 -60.6654 333° Northwest  Level Estimated
Tue 11:34:00 AM -31.4639 -60.7236 333° Northwest  Level Estimated
Tue 11:35:00 AM -31.3661 -60.7817 333° Northwest  Level Estimated
Tue 11:36:00 AM -31.2683 -60.8397 333° Northwest  Level Estimated
Tue 11:37:00 AM -31.1704 -60.8975 333° Northwest  Level Estimated
Tue 11:38:00 AM -31.0726 -60.9552 333° Northwest  Level Estimated
Tue 11:38:50 AM -30.7730 -61.2650 333° Northwest 421 484 36,000  Level FlightAware ADS-B
Tue 11:39:31 AM -30.7150 -61.3080 327° Northwest 422 486 36,000  Level FlightAware ADS-B
Tue 11:39:55 AM -30.6820 -61.3340 326° Northwest 422 486 36,000  Level FlightAware ADS-B
Tue 11:40:51 AM -30.5740 -61.4120 328° Northwest 425 489 36,000  Level FlightAware ADS-B
Tue 11:41:32 AM -30.5050 -61.4630 328° Northwest 426 490 36,000  Level FlightAware ADS-B
Tue 11:42:50 AM -30.3750 -61.5590 327° Northwest 426 490 36,000  Level FlightAware ADS-B
Tue 11:43:30 AM -30.3100 -61.6070 327° Northwest 425 489 36,000  Level FlightAware ADS-B
Tue 11:44:14 AM -30.2430 -61.6570 327° Northwest 424 488 36,000  Level FlightAware ADS-B
Tue 11:45:10 AM -30.1520 -61.7230 328° Northwest 422 486 36,000  Level FlightAware ADS-B
Tue 11:45:46 AM -30.1020 -61.7610 327° Northwest 422 486 36,000  Level FlightAware ADS-B
Tue 11:46:35 AM -30.0340 -61.8120 327° Northwest 422 486 36,000  Level FlightAware ADS-B
Tue 11:47:11 AM -29.9840 -61.8490 327° Northwest 422 486 36,000  Level FlightAware ADS-B
Tue 11:47:47 AM -29.9340 -61.8870 327° Northwest 422 486 36,000  Level FlightAware ADS-B
Tue 11:48:36 AM -29.8650 -61.9380 327° Northwest 422 486 36,000  Level FlightAware ADS-B
Tue 11:49:12 AM -29.8150 -61.9760 327° Northwest 422 486 36,000  Level FlightAware ADS-B
Tue 11:49:49 AM -29.7640 -62.0140 327° Northwest 422 486 36,000  Level FlightAware ADS-B
Tue 11:50:50 AM -29.6790 -62.0780 327° Northwest 422 486 36,000  Level FlightAware ADS-B
Tue 11:51:25 AM -29.6300 -62.1140 327° Northwest 422 486 36,000  Level FlightAware ADS-B
Tue 11:52:02 AM -29.5790 -62.1520 327° Northwest 422 486 36,000  Level FlightAware ADS-B
Tue 11:52:48 AM -29.5150 -62.2000 327° Northwest 422 486 36,000  Level FlightAware ADS-B
Tue 11:53:24 AM -29.4650 -62.2380 327° Northwest 422 486 36,000  Level FlightAware ADS-B
Tue 11:53:58 AM -29.4170 -62.2730 328° Northwest 422 486 36,000 14 Level FlightAware ADS-B
Tue 11:56:00 AM -29.2163 -62.3842 334° Northwest  Level Estimated
Tue 11:57:00 AM -29.1175 -62.4387 334° Northwest  Level Estimated
Tue 11:58:00 AM -29.0187 -62.4931 334° Northwest  Level Estimated
Tue 11:59:00 AM -28.9199 -62.5474 334° Northwest  Level Estimated
Tue 12:00:00 PM -28.8211 -62.6016 334° Northwest  Level Estimated
Tue 12:01:00 PM -28.7222 -62.6557 334° Northwest  Level Estimated
Tue 12:02:00 PM -28.6234 -62.7097 334° Northwest  Level Estimated
Tue 12:03:00 PM -28.5245 -62.7636 334° Northwest  Level Estimated
Tue 12:04:00 PM -28.4256 -62.8174 334° Northwest  Level Estimated
Tue 12:05:00 PM -28.3267 -62.8711 334° Northwest  Level Estimated
Tue 12:06:00 PM -28.2277 -62.9247 334° Northwest  Level Estimated
Tue 12:07:00 PM -28.1287 -62.9782 335° Northwest  Level Estimated
Tue 12:08:00 PM -28.0297 -63.0316 335° Northwest  Level Estimated
Tue 12:09:00 PM -27.9307 -63.0849 335° Northwest  Level Estimated
Tue 12:10:00 PM -27.8317 -63.1381 335° Northwest  Level Estimated
Tue 12:11:00 PM -27.7326 -63.1913 335° Northwest  Level Estimated
Tue 12:12:00 PM -27.6336 -63.2443 335° Northwest  Level Estimated
Tue 12:13:00 PM -27.5345 -63.2972 335° Northwest  Level Estimated
Tue 12:14:00 PM -27.4353 -63.3500 335° Northwest  Level Estimated
Tue 12:15:00 PM -27.3362 -63.4027 335° Northwest  Level Estimated
Tue 12:16:00 PM -27.2370 -63.4554 335° Northwest  Level Estimated
Tue 12:17:00 PM -27.1378 -63.5079 335° Northwest  Level Estimated
Tue 12:18:00 PM -27.0387 -63.5604 335° Northwest  Level Estimated
Tue 12:19:00 PM -26.9394 -63.6127 335° Northwest  Level Estimated
Tue 12:20:00 PM -26.8402 -63.6650 335° Northwest  Level Estimated
Tue 12:21:00 PM -26.7410 -63.7171 335° Northwest  Level Estimated
Tue 12:22:00 PM -26.6417 -63.7692 335° Northwest  Level Estimated
Tue 12:23:00 PM -26.5424 -63.8212 335° Northwest  Level Estimated
Tue 12:24:00 PM -26.4431 -63.8731 335° Northwest  Level Estimated
Tue 12:25:00 PM -26.3438 -63.9249 335° Northwest  Level Estimated
Tue 12:26:00 PM -26.2444 -63.9766 335° Northwest  Level Estimated
Tue 12:27:00 PM -26.1451 -64.0283 335° Northwest  Level Estimated
Tue 12:28:00 PM -26.0457 -64.0798 335° Northwest  Level Estimated
Tue 12:29:00 PM -25.9463 -64.1313 335° Northwest  Level Estimated
Tue 12:30:00 PM -25.8468 -64.1826 335° Northwest  Level Estimated
Tue 12:31:00 PM -25.7474 -64.2339 335° Northwest  Level Estimated
Tue 12:32:00 PM -25.6479 -64.2851 335° Northwest  Level Estimated
Tue 12:33:00 PM -25.5485 -64.3362 335° Northwest  Level Estimated
Tue 12:34:00 PM -25.4490 -64.3873 335° Northwest  Level Estimated
Tue 12:35:00 PM -25.3495 -64.4382 335° Northwest  Level Estimated
Tue 12:36:00 PM -25.2500 -64.4891 335° Northwest  Level Estimated
Tue 12:37:00 PM -25.1504 -64.5398 335° Northwest  Level Estimated
Tue 12:38:00 PM -25.0508 -64.5905 335° Northwest  Level Estimated
Tue 12:39:00 PM -24.9513 -64.6411 335° Northwest  Level Estimated
Tue 12:40:00 PM -24.8517 -64.6917 335° Northwest  Level Estimated
Tue 12:41:00 PM -24.7521 -64.7421 335° Northwest  Level Estimated
Tue 12:42:00 PM -24.6524 -64.7925 335° Northwest  Level Estimated
Tue 12:43:00 PM -24.5528 -64.8428 335° Northwest  Level Estimated
Tue 12:44:00 PM -24.4531 -64.8930 335° Northwest  Level Estimated
Tue 12:45:00 PM -24.3534 -64.9431 335° Northwest  Level Estimated
Tue 12:46:00 PM -24.2537 -64.9932 335° Northwest  Level Estimated
Tue 12:47:00 PM -24.1540 -65.0431 335° Northwest  Level Estimated
Tue 12:48:00 PM -24.0543 -65.0930 335° Northwest  Level Estimated
Tue 12:49:00 PM -23.9546 -65.1428 335° Northwest  Level Estimated
Tue 12:50:00 PM -23.8548 -65.1926 335° Northwest  Level Estimated
Tue 12:51:00 PM -23.7550 -65.2422 336° Northwest  Level Estimated
Tue 12:52:00 PM -23.6552 -65.2918 336° Northwest  Level Estimated
Tue 12:53:00 PM -23.5554 -65.3413 336° Northwest  Level Estimated
Tue 12:54:00 PM -23.4556 -65.3908 336° Northwest  Level Estimated
Tue 12:55:00 PM -23.3558 -65.4401 336° Northwest  Level Estimated
Tue 12:56:00 PM -23.2559 -65.4894 336° Northwest  Level Estimated
Tue 12:57:00 PM -23.1560 -65.5386 336° Northwest  Level Estimated
Tue 12:58:00 PM -23.0562 -65.5878 336° Northwest  Level Estimated
Tue 12:59:00 PM -22.9562 -65.6368 336° Northwest  Level Estimated
Tue 01:00:00 PM -22.8563 -65.6858 336° Northwest  Level Estimated
Tue 01:01:00 PM -22.7564 -65.7347 336° Northwest  Level Estimated
Tue 01:02:00 PM -22.6565 -65.7836 336° Northwest  Level Estimated
Tue 01:03:00 PM -22.5565 -65.8324 336° Northwest  Level Estimated
Tue 01:04:00 PM -22.4565 -65.8811 336° Northwest  Level Estimated
Tue 01:05:00 PM -22.3565 -65.9297 336° Northwest  Level Estimated
Tue 01:06:00 PM -22.2565 -65.9783 336° Northwest  Level Estimated
Tue 01:07:00 PM -22.1565 -66.0268 336° Northwest  Level Estimated
Tue 01:08:00 PM -22.0565 -66.0752 336° Northwest  Level Estimated
Tue 01:09:00 PM -21.9564 -66.1236 336° Northwest  Level Estimated
Tue 01:10:00 PM -21.8564 -66.1719 336° Northwest  Level Estimated
Tue 01:11:00 PM -21.7563 -66.2201 336° Northwest  Level Estimated
Tue 01:12:00 PM -21.6562 -66.2683 336° Northwest  Level Estimated
Tue 01:13:00 PM -21.5561 -66.3164 336° Northwest  Level Estimated
Tue 01:14:00 PM -21.4560 -66.3644 336° Northwest  Level Estimated
Tue 01:15:00 PM -21.3559 -66.4123 336° Northwest  Level Estimated
Tue 01:16:00 PM -21.2557 -66.4602 336° Northwest  Level Estimated
Tue 01:17:00 PM -21.1556 -66.5080 336° Northwest  Level Estimated
Tue 01:18:00 PM -21.0554 -66.5558 336° Northwest  Level Estimated
Tue 01:19:00 PM -20.9552 -66.6035 336° Northwest  Level Estimated
Tue 01:20:00 PM -20.8550 -66.6512 336° Northwest  Level Estimated
Tue 01:21:00 PM -20.7548 -66.6987 336° Northwest  Level Estimated
Tue 01:22:00 PM -20.6546 -66.7462 336° Northwest  Level Estimated
Tue 01:23:00 PM -20.5543 -66.7937 336° Northwest  Level Estimated
Tue 01:24:00 PM -20.4541 -66.8411 336° Northwest  Level Estimated
Tue 01:25:00 PM -20.3538 -66.8884 336° Northwest  Level Estimated
Tue 01:26:00 PM -20.2535 -66.9356 336° Northwest  Level Estimated
Tue 01:27:00 PM -20.1532 -66.9828 336° Northwest  Level Estimated
Tue 01:28:00 PM -20.0529 -67.0300 336° Northwest  Level Estimated
Tue 01:29:00 PM -19.9526 -67.0771 336° Northwest  Level Estimated
Tue 01:30:00 PM -19.8523 -67.1241 336° Northwest  Level Estimated
Tue 01:31:00 PM -19.7520 -67.1710 336° Northwest  Level Estimated
Tue 01:32:00 PM -19.6516 -67.2179 336° Northwest  Level Estimated
Tue 01:33:00 PM -19.5513 -67.2648 336° Northwest  Level Estimated
Tue 01:34:00 PM -19.4509 -67.3116 336° Northwest  Level Estimated
Tue 01:35:00 PM -19.3505 -67.3583 336° Northwest  Level Estimated
Tue 01:36:00 PM -19.2501 -67.4050 336° Northwest  Level Estimated
Tue 01:37:00 PM -19.1497 -67.4516 336° Northwest  Level Estimated
Tue 01:38:00 PM -19.0493 -67.4981 336° Northwest  Level Estimated
Tue 01:39:00 PM -18.9488 -67.5446 336° Northwest  Level Estimated
Tue 01:40:00 PM -18.8484 -67.5911 336° Northwest  Level Estimated
Tue 01:41:00 PM -18.7479 -67.6375 336° Northwest  Level Estimated
Tue 01:42:00 PM -18.6475 -67.6838 336° Northwest  Level Estimated
Tue 01:43:00 PM -18.5470 -67.7301 336° Northwest  Level Estimated
Tue 01:44:00 PM -18.4465 -67.7763 336° Northwest  Level Estimated
Tue 01:45:00 PM -18.3460 -67.8224 336° Northwest  Level Estimated
Tue 01:46:00 PM -18.2455 -67.8686 336° Northwest  Level Estimated
Tue 01:47:00 PM -18.1450 -67.9146 336° Northwest  Level Estimated
Tue 01:48:00 PM -18.0444 -67.9606 336° Northwest  Level Estimated
Tue 01:49:00 PM -17.9439 -68.0066 336° Northwest  Level Estimated
Tue 01:50:00 PM -17.8433 -68.0525 337° Northwest  Level Estimated
Tue 01:51:00 PM -17.7428 -68.0983 337° Northwest  Level Estimated
Tue 01:52:00 PM -17.6422 -68.1441 337° Northwest  Level Estimated
Tue 01:53:00 PM -17.5416 -68.1899 337° Northwest  Level Estimated
Tue 01:54:00 PM -17.4410 -68.2356 337° Northwest  Level Estimated
Tue 01:55:00 PM -17.3404 -68.2812 337° Northwest  Level Estimated
Tue 01:56:00 PM -17.2398 -68.3268 337° Northwest  Level Estimated
Tue 01:57:00 PM -17.1391 -68.3724 337° Northwest  Level Estimated
Tue 01:58:00 PM -17.0385 -68.4179 337° Northwest  Level Estimated
Tue 01:59:00 PM -16.9378 -68.4633 337° Northwest  Level Estimated
Tue 02:00:00 PM -16.8372 -68.5087 337° Northwest  Level Estimated
Tue 02:01:00 PM -16.7365 -68.5541 337° Northwest  Level Estimated
Tue 02:02:00 PM -16.6358 -68.5994 337° Northwest  Level Estimated
Tue 02:03:00 PM -16.5351 -68.6447 337° Northwest  Level Estimated
Tue 02:04:00 PM -16.4344 -68.6899 337° Northwest  Level Estimated
Tue 02:05:00 PM -16.3337 -68.7350 337° Northwest  Level Estimated
Tue 02:06:00 PM -16.2330 -68.7802 337° Northwest  Level Estimated
Tue 02:07:00 PM -16.1323 -68.8252 337° Northwest  Level Estimated
Tue 02:08:00 PM -16.0315 -68.8702 337° Northwest  Level Estimated
Tue 02:09:00 PM -15.9308 -68.9152 337° Northwest  Level Estimated
Tue 02:10:00 PM -15.8300 -68.9602 337° Northwest  Level Estimated
Tue 02:11:00 PM -15.7293 -69.0051 337° Northwest  Level Estimated
Tue 02:12:00 PM -15.6285 -69.0499 337° Northwest  Level Estimated
Tue 02:13:00 PM -15.5277 -69.0947 337° Northwest  Level Estimated
Tue 02:14:00 PM -15.4269 -69.1395 337° Northwest  Level Estimated
Tue 02:15:00 PM -15.3261 -69.1842 337° Northwest  Level Estimated
Tue 02:16:00 PM -15.2253 -69.2288 337° Northwest  Level Estimated
Tue 02:17:00 PM -15.1245 -69.2735 337° Northwest  Level Estimated
Tue 02:18:00 PM -15.0237 -69.3181 337° Northwest  Level Estimated
Tue 02:19:00 PM -14.9228 -69.3626 337° Northwest  Level Estimated
Tue 02:20:00 PM -14.8220 -69.4071 337° Northwest  Level Estimated
Tue 02:21:00 PM -14.7211 -69.4516 337° Northwest  Level Estimated
Tue 02:22:00 PM -14.6203 -69.4960 337° Northwest  Level Estimated
Tue 02:23:00 PM -14.5194 -69.5404 337° Northwest  Level Estimated
Tue 02:24:00 PM -14.4185 -69.5847 337° Northwest  Level Estimated
Tue 02:25:00 PM -14.3176 -69.6290 337° Northwest  Level Estimated
Tue 02:26:00 PM -14.2167 -69.6733 337° Northwest  Level Estimated
Tue 02:27:00 PM -14.1158 -69.7175 337° Northwest  Level Estimated
Tue 02:28:00 PM -14.0149 -69.7617 337° Northwest  Level Estimated
Tue 02:29:00 PM -13.9140 -69.8058 337° Northwest  Level Estimated
Tue 02:30:00 PM -13.8131 -69.8499 337° Northwest  Level Estimated
Tue 02:31:00 PM -13.7121 -69.8940 337° Northwest  Level Estimated
Tue 02:32:00 PM -13.6112 -69.9380 337° Northwest  Level Estimated
Tue 02:33:00 PM -13.5102 -69.9820 337° Northwest  Level Estimated
Tue 02:34:00 PM -13.4093 -70.0259 337° Northwest  Level Estimated
Tue 02:35:00 PM -13.3083 -70.0698 337° Northwest  Level Estimated
Tue 02:36:00 PM -13.2073 -70.1137 337° Northwest  Level Estimated
Tue 02:37:00 PM -13.1063 -70.1576 337° Northwest  Level Estimated
Tue 02:38:00 PM -13.0054 -70.2014 337° Northwest  Level Estimated
Tue 02:39:00 PM -12.9044 -70.2451 337° Northwest  Level Estimated
Tue 02:40:00 PM -12.8034 -70.2889 337° Northwest  Level Estimated
Tue 02:41:00 PM -12.7023 -70.3326 337° Northwest  Level Estimated
Tue 02:42:00 PM -12.6013 -70.3763 337° Northwest  Level Estimated
Tue 02:43:00 PM -12.5003 -70.4199 337° Northwest  Level Estimated
Tue 02:44:00 PM -12.3993 -70.4635 337° Northwest  Level Estimated
Tue 02:45:00 PM -12.2982 -70.5070 337° Northwest  Level Estimated
Tue 02:46:00 PM -12.1972 -70.5506 337° Northwest  Level Estimated
Tue 02:47:00 PM -12.0961 -70.5941 337° Northwest  Level Estimated
Tue 02:48:00 PM -11.9951 -70.6375 337° Northwest  Level Estimated
Tue 02:49:00 PM -11.8940 -70.6810 337° Northwest  Level Estimated
Tue 02:50:00 PM -11.7929 -70.7244 337° Northwest  Level Estimated
Tue 02:51:00 PM -11.6919 -70.7677 337° Northwest  Level Estimated
Tue 02:52:00 PM -11.5908 -70.8111 337° Northwest  Level Estimated
Tue 02:53:00 PM -11.4897 -70.8544 337° Northwest  Level Estimated
Tue 02:54:00 PM -11.3886 -70.8976 337° Northwest  Level Estimated
Tue 02:55:00 PM -11.2875 -70.9409 337° Northwest  Level Estimated
Tue 02:56:00 PM -11.1864 -70.9841 337° Northwest  Level Estimated
Tue 02:57:00 PM -11.0852 -71.0273 337° Northwest  Level Estimated
Tue 02:58:00 PM -10.9841 -71.0704 337° Northwest  Level Estimated
Tue 02:59:00 PM -10.8830 -71.1135 337° Northwest  Level Estimated
Tue 03:00:00 PM -10.7819 -71.1566 337° Northwest  Level Estimated
Tue 03:01:00 PM -10.6807 -71.1997 337° Northwest  Level Estimated
Tue 03:02:00 PM -10.5796 -71.2427 337° Northwest  Level Estimated
Tue 03:03:00 PM -10.4784 -71.2857 337° Northwest  Level Estimated
Tue 03:04:00 PM -10.3773 -71.3287 337° Northwest  Level Estimated
Tue 03:05:00 PM -10.2761 -71.3717 337° Northwest  Level Estimated
Tue 03:06:00 PM -10.1749 -71.4146 337° Northwest  Level Estimated
Tue 03:07:00 PM -10.0737 -71.4575 337° Northwest  Level Estimated
Tue 03:08:00 PM -9.9726 -71.5004 337° Northwest  Level Estimated
Tue 03:09:00 PM -9.8714 -71.5432 337° Northwest  Level Estimated
Tue 03:10:00 PM -9.7702 -71.5860 337° Northwest  Level Estimated
Tue 03:11:00 PM -9.6690 -71.6288 337° Northwest  Level Estimated
Tue 03:12:00 PM -9.5678 -71.6716 337° Northwest  Level Estimated
Tue 03:13:00 PM -9.4666 -71.7143 337° Northwest  Level Estimated
Tue 03:14:00 PM -9.3654 -71.7570 337° Northwest  Level Estimated
Tue 03:15:00 PM -9.2641 -71.7997 337° Northwest  Level Estimated
Tue 03:16:00 PM -9.1629 -71.8424 337° Northwest  Level Estimated
Tue 03:17:00 PM -9.0617 -71.8850 337° Northwest  Level Estimated
Tue 03:18:00 PM -8.9605 -71.9276 337° Northwest  Level Estimated
Tue 03:19:00 PM -8.8592 -71.9702 337° Northwest  Level Estimated
Tue 03:20:00 PM -8.7580 -72.0128 337° Northwest  Level Estimated
Tue 03:21:00 PM -8.6567 -72.0553 337° Northwest  Level Estimated
Tue 03:22:00 PM -8.5555 -72.0978 337° Northwest  Level Estimated
Tue 03:23:00 PM -8.4542 -72.1404 337° Northwest  Level Estimated
Tue 03:24:00 PM -8.3530 -72.1828 337° Northwest  Level Estimated
Tue 03:25:00 PM -8.2517 -72.2253 337° Northwest  Level Estimated
Tue 03:26:00 PM -8.1504 -72.2677 337° Northwest  Level Estimated
Tue 03:27:00 PM -8.0492 -72.3101 337° Northwest  Level Estimated
Tue 03:28:00 PM -7.9479 -72.3525 337° Northwest  Level Estimated
Tue 03:29:00 PM -7.8466 -72.3949 337° Northwest  Level Estimated
Tue 03:30:00 PM -7.7453 -72.4372 337° Northwest  Level Estimated
Tue 03:31:00 PM -7.6440 -72.4796 338° Northwest  Level Estimated
Tue 03:32:00 PM -7.5427 -72.5219 338° Northwest  Level Estimated
Tue 03:33:00 PM -7.4414 -72.5642 338° Northwest  Level Estimated
Tue 03:34:00 PM -7.3401 -72.6064 338° Northwest  Level Estimated
Tue 03:35:00 PM -7.2388 -72.6487 338° Northwest  Level Estimated
Tue 03:36:00 PM -7.1375 -72.6909 338° Northwest  Level Estimated
Tue 03:37:00 PM -7.0362 -72.7331 338° Northwest  Level Estimated
Tue 03:38:00 PM -6.9349 -72.7753 338° Northwest  Level Estimated
Tue 03:39:00 PM -6.8335 -72.8175 338° Northwest  Level Estimated
Tue 03:40:00 PM -6.7322 -72.8597 338° Northwest  Level Estimated
Tue 03:41:00 PM -6.6309 -72.9018 338° Northwest  Level Estimated
Tue 03:42:00 PM -6.5295 -72.9439 338° Northwest  Level Estimated
Tue 03:43:00 PM -6.4282 -72.9860 338° Northwest  Level Estimated
Tue 03:44:00 PM -6.3269 -73.0281 338° Northwest  Level Estimated
Tue 03:45:00 PM -6.2255 -73.0702 338° Northwest  Level Estimated
Tue 03:46:00 PM -6.1242 -73.1123 338° Northwest  Level Estimated
Tue 03:47:00 PM -6.0228 -73.1543 338° Northwest  Level Estimated
Tue 03:48:00 PM -5.9215 -73.1963 338° Northwest  Level Estimated
Tue 03:49:00 PM -5.8201 -73.2383 338° Northwest  Level Estimated
Tue 03:50:00 PM -5.7188 -73.2803 338° Northwest  Level Estimated
Tue 03:51:00 PM -5.6174 -73.3223 338° Northwest  Level Estimated
Tue 03:52:00 PM -5.5160 -73.3643 338° Northwest  Level Estimated
Tue 03:53:00 PM -5.4146 -73.4062 338° Northwest  Level Estimated
Tue 03:54:00 PM -5.3133 -73.4482 338° Northwest  Level Estimated
Tue 03:55:00 PM -5.2119 -73.4901 338° Northwest  Level Estimated
Tue 03:56:00 PM -5.1105 -73.5320 338° Northwest  Level Estimated
Tue 03:57:00 PM -5.0091 -73.5739 338° Northwest  Level Estimated
Tue 03:58:00 PM -4.9078 -73.6158 338° Northwest  Level Estimated
Tue 03:59:00 PM -4.8064 -73.6577 338° Northwest  Level Estimated
Tue 04:00:00 PM -4.7050 -73.6995 338° Northwest  Level Estimated
Tue 04:01:00 PM -4.6036 -73.7414 338° Northwest  Level Estimated
Tue 04:02:00 PM -4.5022 -73.7832 338° Northwest  Level Estimated
Tue 04:03:00 PM -4.4008 -73.8250 338° Northwest  Level Estimated
Tue 04:04:00 PM -4.2994 -73.8668 338° Northwest  Level Estimated
Tue 04:05:00 PM -4.1980 -73.9086 338° Northwest  Level Estimated
Tue 04:06:00 PM -4.0966 -73.9504 338° Northwest  Level Estimated
Tue 04:07:00 PM -3.9952 -73.9922 338° Northwest  Level Estimated
Tue 04:08:00 PM -3.8938 -74.0340 338° Northwest  Level Estimated
Tue 04:09:00 PM -3.7924 -74.0757 338° Northwest  Level Estimated
Tue 04:10:00 PM -3.6910 -74.1175 338° Northwest  Level Estimated
Tue 04:11:00 PM -3.5896 -74.1592 338° Northwest  Level Estimated
Tue 04:12:00 PM -3.4881 -74.2009 338° Northwest  Level Estimated
Tue 04:13:00 PM -3.3867 -74.2427 338° Northwest  Level Estimated
Tue 04:14:00 PM -3.2853 -74.2844 338° Northwest  Level Estimated
Tue 04:15:00 PM -3.1839 -74.3261 338° Northwest  Level Estimated
Tue 04:16:00 PM -3.0824 -74.3678 338° Northwest  Level Estimated
Tue 04:17:00 PM -2.9810 -74.4095 338° Northwest  Level Estimated
Tue 04:18:00 PM -2.8796 -74.4511 338° Northwest  Level Estimated
Tue 04:19:00 PM -2.7782 -74.4928 338° Northwest  Level Estimated
Tue 04:20:00 PM -2.6767 -74.5345 338° Northwest  Level Estimated
Tue 04:21:00 PM -2.5753 -74.5761 338° Northwest  Level Estimated
Tue 04:22:00 PM -2.4739 -74.6178 338° Northwest  Level Estimated
Tue 04:23:00 PM -2.3725 -74.6594 338° Northwest  Level Estimated
Tue 04:24:00 PM -2.2710 -74.7011 338° Northwest  Level Estimated
Tue 04:25:00 PM -2.1696 -74.7427 338° Northwest  Level Estimated
Tue 04:26:00 PM -2.0682 -74.7843 338° Northwest  Level Estimated
Tue 04:27:00 PM -1.9667 -74.8260 338° Northwest  Level Estimated
Tue 04:28:00 PM -1.8653 -74.8676 338° Northwest  Level Estimated
Tue 04:29:00 PM -1.7638 -74.9092 338° Northwest  Level Estimated
Tue 04:30:00 PM -1.6624 -74.9508 338° Northwest  Level Estimated
Tue 04:31:00 PM -1.5610 -74.9924 338° Northwest  Level Estimated
Tue 04:32:00 PM -1.4595 -75.0340 338° Northwest  Level Estimated
Tue 04:33:00 PM -1.3581 -75.0756 338° Northwest  Level Estimated
Tue 04:33:08 PM 2.4830 -75.9610 338° Northwest 457 526 40,000  Level FlightAware ADS-B
Tue 04:33:56 PM 2.5770 -76.0020 336° Northwest 457 526 40,000  Level FlightAware ADS-B
Tue 04:34:00 PM -1.2566 -75.1172 338° Northwest  Level Estimated
Tue 04:34:36 PM 2.6520 -76.0350 336° Northwest 458 527 40,000  Level FlightAware ADS-B
Tue 04:35:18 PM 2.7280 -76.0690 336° Northwest 460 529 40,000  Level FlightAware ADS-B
Tue 04:35:54 PM 2.7880 -76.0950 337° Northwest 460 529 40,000  Level FlightAware ADS-B
Tue 04:36:30 PM 2.8470 -76.1220 335° Northwest 460 529 40,000  Level FlightAware ADS-B
Tue 04:37:19 PM 2.9280 -76.1580 336° Northwest 460 529 40,000  Level FlightAware ADS-B
Tue 04:37:53 PM 2.9840 -76.1830 336° Northwest 460 529 40,000  Level FlightAware ADS-B
Tue 04:38:31 PM 3.0470 -76.2110 336° Northwest 460 529 40,000  Level FlightAware ADS-B
Tue 04:39:19 PM 3.1260 -76.2460 336° Northwest 460 529 40,000  Level FlightAware ADS-B
Tue 04:39:55 PM 3.1860 -76.2730 336° Northwest 460 529 40,000  Level FlightAware ADS-B
Tue 04:40:44 PM 3.2670 -76.3090 336° Northwest 460 529 40,000  Level FlightAware ADS-B
Tue 04:41:23 PM 3.3310 -76.3370 336° Northwest 460 529 40,000  Level FlightAware ADS-B
Tue 04:41:59 PM 3.3910 -76.3640 336° Northwest 460 529 40,000  Level FlightAware ADS-B
Tue 04:42:47 PM 3.4700 -76.3990 336° Northwest 460 529 40,000  Level FlightAware ADS-B
Tue 04:43:24 PM 3.5310 -76.4270 335° Northwest 460 529 40,000  Level FlightAware ADS-B
Tue 04:44:00 PM 3.5910 -76.4530 337° Northwest 460 529 40,000  Level FlightAware ADS-B
Tue 04:44:48 PM 3.6700 -76.4890 336° Northwest 460 529 40,000  Level FlightAware ADS-B
Tue 04:47:00 PM 3.8832 -76.6021 332° Northwest  Level Estimated
Tue 04:48:00 PM 3.9801 -76.6535 332° Northwest  Level Estimated
Tue 04:48:04 PM 4.1640 -76.8450 332° Northwest 40,000  Level FlightAware ADS-B
Tue 04:48:54 PM 4.2470 -76.8930 330° Northwest 462 532 40,000  Level FlightAware ADS-B
Tue 04:49:30 PM 4.3040 -76.9260 330° Northwest 462 532 40,000  Level FlightAware ADS-B
Tue 04:50:19 PM 4.3810 -76.9710 330° Northwest 462 532 40,000  Level FlightAware ADS-B
Tue 04:50:55 PM 4.4380 -77.0030 331° Northwest 462 532 40,000  Level FlightAware ADS-B
Tue 04:51:43 PM 4.5130 -77.0470 330° Northwest 462 532 40,000  Level FlightAware ADS-B
Tue 04:52:20 PM 4.5720 -77.0810 330° Northwest 462 532 40,000  Level FlightAware ADS-B
Tue 04:52:56 PM 4.6280 -77.1140 330° Northwest 462 532 40,000  Level FlightAware ADS-B
Tue 04:53:44 PM 4.7040 -77.1570 331° Northwest 462 532 40,000  Level FlightAware ADS-B
Tue 04:54:31 PM 4.7780 -77.2000 330° Northwest 462 532 40,000  Level FlightAware ADS-B
Tue 04:55:07 PM 4.8340 -77.2330 330° Northwest 462 532 40,000  Level FlightAware ADS-B
Tue 04:56:08 PM 4.9300 -77.2890 330° Northwest 462 532 40,000  Level FlightAware ADS-B
Tue 04:56:45 PM 4.9890 -77.3220 331° Northwest 462 532 40,000  Level FlightAware ADS-B
Tue 04:57:21 PM 5.0450 -77.3550 330° Northwest 462 532 40,000  Level FlightAware ADS-B
Tue 04:57:58 PM 5.1030 -77.3890 330° Northwest 462 532 40,000  Level FlightAware ADS-B
Tue 05:00:00 PM 5.3027 -77.4885 334° Northwest  Level Estimated
Tue 05:01:00 PM 5.4009 -77.5375 334° Northwest  Level Estimated
Tue 05:02:00 PM 5.4991 -77.5865 334° Northwest  Level Estimated
Tue 05:03:00 PM 5.5973 -77.6355 334° Northwest  Level Estimated
Tue 05:04:00 PM 5.6954 -77.6845 334° Northwest  Level Estimated
Tue 05:05:00 PM 5.7936 -77.7335 334° Northwest  Level Estimated
Tue 05:06:00 PM 5.8918 -77.7826 334° Northwest  Level Estimated
Tue 05:07:00 PM 5.9900 -77.8316 334° Northwest  Level Estimated
Tue 05:08:00 PM 6.0882 -77.8807 334° Northwest  Level Estimated
Tue 05:08:59 PM 6.4370 -78.1640 334° Northwest 439 505 40,000  Level FlightAware ADS-B
Tue 05:09:00 PM 6.1863 -77.9298 334° Northwest  Level Estimated
Tue 05:09:36 PM 6.4930 -78.1950 331° Northwest 439 505 40,000  Level FlightAware ADS-B
Tue 05:10:12 PM 6.5480 -78.2260 331° Northwest 439 505 40,000  Level FlightAware ADS-B
Tue 05:11:01 PM 6.6220 -78.2670 331° Northwest 439 505 40,000  Level FlightAware ADS-B
Tue 05:11:29 PM 6.6640 -78.2900 331° Northwest 439 505 40,000  Level FlightAware ADS-B
Tue 05:12:17 PM 6.7360 -78.3310 331° Northwest 439 505 40,000  Level FlightAware ADS-B
Tue 05:12:51 PM 6.7880 -78.3600 331° Northwest 439 505 40,000  Level FlightAware ADS-B
Tue 05:13:34 PM 6.9320 -78.4270 335° Northwest 426 490 40,000  Level FlightAware ADS-B
Tue 05:14:23 PM 7.0280 -78.4560 343° North 426 490 40,000 -404 Level FlightAware ADS-B
Tue 05:15:03 PM 7.0980 -78.4780 343° North 430 495 39,400 -975 Descending FlightAware ADS-B
Tue 05:15:43 PM 7.1780 -78.5030 343° North 438 504 38,700 -1,040 Descending FlightAware ADS-B
Tue 05:16:18 PM 7.2470 -78.5240 343° North 439 505 38,100 -846 Descending FlightAware ADS-B
Tue 05:17:01 PM 7.3150 -78.5450 343° North 438 504 37,600 -330 Descending FlightAware ADS-B
Tue 05:17:49 PM 7.3940 -78.5690 343° North 438 504 37,600  Level FlightAware ADS-B
Tue 05:18:25 PM 7.4530 -78.5880 342° North 438 504 37,600 -4,563 Level FlightAware ADS-B
Tue 05:19:25 PM 7.6160 -78.6370 343° North 467 537 30,300 -6,194 Descending FlightAware ADS-B
Tue 05:19:58 PM 7.6850 -78.6580 343° North 467 537 28,000 -1,643 Descending FlightAware ADS-B
Tue 05:20:49 PM 7.7750 -78.6860 343° North 467 537 28,000  Level FlightAware ADS-B
Tue 05:21:26 PM 7.8400 -78.7060 343° North 467 537 28,000  Level FlightAware ADS-B
Tue 05:22:14 PM 7.9240 -78.7320 343° North 467 537 28,000  Level FlightAware ADS-B
Tue 05:22:50 PM 7.9870 -78.7510 343° North 467 537 28,000  Level FlightAware ADS-B
Tue 05:23:38 PM 8.0720 -78.7770 343° North 467 537 28,000  Level FlightAware ADS-B
Tue 05:26:00 PM 8.2946 -78.9117 329° Northwest  Level Estimated
Tue 05:27:00 PM 8.3886 -78.9687 329° Northwest  Level Estimated
Tue 05:28:00 PM 8.4826 -79.0257 329° Northwest  Level Estimated
Tue 05:29:00 PM 8.5766 -79.0828 329° Northwest  Level Estimated
Tue 05:30:00 PM 8.6706 -79.1398 329° Northwest  Level Estimated
Tue 05:31:00 PM 8.7646 -79.1969 329° Northwest  Level Estimated
Tue 05:32:00 PM 8.8586 -79.2540 329° Northwest  Level Estimated
Tue 05:33:00 PM 8.9526 -79.3112 329° Northwest  Level Estimated
Tue 05:34:00 PM 9.0466 -79.3684 329° Northwest  Level Estimated
Tue 05:35:00 PM 9.0714 -79.3835 329° Northwest  Level Estimated
Tue 05:36:00 PM 9.0714 -79.3835 323° Northwest  Level Estimated
Tue 05:37:00 PM 9.0714 -79.3835 323° Northwest  Level Estimated
Tue 05:38:00 PM 9.0714 -79.3835 323° Northwest  Level Estimated
Tue 05:39:00 PM 9.0714 -79.3835 323° Northwest  Level Estimated
Tue 05:40:00 PM 9.0714 -79.3835 323° Northwest  Level Estimated
Tue 05:41:00 PM 9.0714 -79.3835 323° Northwest  Level Estimated
Tue 05:42:00 PM 9.0714 -79.3835 323° Northwest  Level Estimated
Tue 05:43:00 PM 9.0714 -79.3835 323° Northwest  Level Estimated
Tue 05:44:00 PM 9.0714 -79.3835 323° Northwest  Level Estimated
Tue 05:45:00 PM 9.0714 -79.3835 323° Northwest  Level Estimated
Tue 05:46:00 PM 9.0714 -79.3835 323° Northwest  Level Estimated
Tue 05:47:00 PM 9.0714 -79.3835 323° Northwest  Level Estimated
Tue 05:48:00 PM 9.0714 -79.3835 323° Northwest  Level Estimated
Tue 05:49:00 PM 9.0714 -79.3835 323° Northwest  Level Estimated
Tue 05:50:00 PM 9.0714 -79.3835 323° Northwest  Level Estimated
Tue 05:51:00 PM 9.0714 -79.3835 323° Northwest  Level Estimated
Tue 05:52:00 PM 9.0714 -79.3835 323° Northwest  Level Estimated
Tue 05:53:00 PM 9.0714 -79.3835 323° Northwest  Level Estimated
Tue 05:54:00 PM 9.0714 -79.3835 323° Northwest  Level Estimated
Tue 05:55:00 PM 9.0714 -79.3835 323° Northwest  Level Estimated
Tue 05:56:00 PM 9.0714 -79.3835 323° Northwest  Level Estimated
Tue 05:57:00 PM 9.0714 -79.3835 323° Northwest  Level Estimated
Tue 05:58:00 PM 9.0714 -79.3835 323° Northwest  Level Estimated
Tue 05:59:00 PM 9.0714 -79.3835 323° Northwest  Level Estimated
Tue 06:00:00 PM 9.0714 -79.3835 323° Northwest  Level Estimated
Tue 06:01:00 PM 9.0714 -79.3835 323° Northwest  Level Estimated
Tue 06:02:00 PM 9.0714 -79.3835 323° Northwest  Level Estimated

Login

Don't have an account? Register now (free) for customized features, flight alerts, and more!